sensor_id;sensor_type;location;lat;lon;timestamp;temperature;humidity
12384;DHT22;6256;63.808;20.336;2023-11-21T00:01:57;-6.70;99.90
12384;DHT22;6256;63.808;20.336;2023-11-21T00:04:23;-6.70;99.90
12384;DHT22;6256;63.808;20.336;2023-11-21T00:06:49;-6.80;99.90
12384;DHT22;6256;63.808;20.336;2023-11-21T00:09:15;-6.70;99.90
12384;DHT22;6256;63.808;20.336;2023-11-21T00:11:41;-6.70;99.90
12384;DHT22;6256;63.808;20.336;2023-11-21T00:14:07;-6.70;99.90
12384;DHT22;6256;63.808;20.336;2023-11-21T00:16:35;-6.70;99.90
12384;DHT22;6256;63.808;20.336;2023-11-21T00:19:01;-6.90;99.90
12384;DHT22;6256;63.808;20.336;2023-11-21T00:21:26;-6.80;99.90
12384;DHT22;6256;63.808;20.336;2023-11-21T00:23:52;-6.90;99.90
12384;DHT22;6256;63.808;20.336;2023-11-21T00:26:18;-6.90;99.90
12384;DHT22;6256;63.808;20.336;2023-11-21T00:28:43;-6.90;99.90
12384;DHT22;6256;63.808;20.336;2023-11-21T00:31:09;-6.90;99.90
12384;DHT22;6256;63.808;20.336;2023-11-21T00:33:35;-6.90;99.90
12384;DHT22;6256;63.808;20.336;2023-11-21T00:36:00;-6.90;99.90
12384;DHT22;6256;63.808;20.336;2023-11-21T00:38:26;-6.90;99.90
12384;DHT22;6256;63.808;20.336;2023-11-21T00:40:53;-6.90;99.90
12384;DHT22;6256;63.808;20.336;2023-11-21T00:43:22;-7.00;99.90
12384;DHT22;6256;63.808;20.336;2023-11-21T00:45:48;-7.00;99.90
12384;DHT22;6256;63.808;20.336;2023-11-21T00:48:14;-6.90;99.90
12384;DHT22;6256;63.808;20.336;2023-11-21T00:50:40;-6.90;99.90
12384;DHT22;6256;63.808;20.336;2023-11-21T00:53:06;-6.90;99.90
12384;DHT22;6256;63.808;20.336;2023-11-21T00:55:33;-7.00;99.90
12384;DHT22;6256;63.808;20.336;2023-11-21T00:58:00;-7.00;99.90
12384;DHT22;6256;63.808;20.336;2023-11-21T01:00:25;-7.00;99.90
12384;DHT22;6256;63.808;20.336;2023-11-21T01:02:51;-7.00;99.90
12384;DHT22;6256;63.808;20.336;2023-11-21T01:05:17;-7.00;99.90
12384;DHT22;6256;63.808;20.336;2023-11-21T01:07:43;-7.10;99.90
12384;DHT22;6256;63.808;20.336;2023-11-21T01:10:09;-7.10;99.90
12384;DHT22;6256;63.808;20.336;2023-11-21T01:12:36;-7.10;99.90
12384;DHT22;6256;63.808;20.336;2023-11-21T01:15:05;-7.10;99.90
12384;DHT22;6256;63.808;20.336;2023-11-21T01:17:34;-7.10;99.90
12384;DHT22;6256;63.808;20.336;2023-11-21T01:20:01;-7.10;99.90
12384;DHT22;6256;63.808;20.336;2023-11-21T01:22:28;-7.10;99.90
12384;DHT22;6256;63.808;20.336;2023-11-21T01:24:54;-7.10;99.90
12384;DHT22;6256;63.808;20.336;2023-11-21T01:27:20;-7.20;99.90
12384;DHT22;6256;63.808;20.336;2023-11-21T01:29:45;-7.20;99.90
12384;DHT22;6256;63.808;20.336;2023-11-21T01:32:11;-7.20;99.90
12384;DHT22;6256;63.808;20.336;2023-11-21T01:34:37;-7.20;99.90
12384;DHT22;6256;63.808;20.336;2023-11-21T01:37:03;-7.20;99.90
12384;DHT22;6256;63.808;20.336;2023-11-21T01:39:30;-7.20;99.90
12384;DHT22;6256;63.808;20.336;2023-11-21T01:41:57;-7.20;99.90
12384;DHT22;6256;63.808;20.336;2023-11-21T01:44:26;-7.20;99.90
12384;DHT22;6256;63.808;20.336;2023-11-21T01:46:52;-7.20;99.90
12384;DHT22;6256;63.808;20.336;2023-11-21T01:49:19;-7.20;99.90
12384;DHT22;6256;63.808;20.336;2023-11-21T01:51:48;-7.20;99.90
12384;DHT22;6256;63.808;20.336;2023-11-21T01:54:17;-7.20;99.90
12384;DHT22;6256;63.808;20.336;2023-11-21T01:56:47;-7.30;99.90
12384;DHT22;6256;63.808;20.336;2023-11-21T01:59:19;-7.30;99.90
12384;DHT22;6256;63.808;20.336;2023-11-21T02:01:46;-7.20;99.90
12384;DHT22;6256;63.808;20.336;2023-11-21T02:04:13;-7.20;99.90
12384;DHT22;6256;63.808;20.336;2023-11-21T02:06:39;-7.20;99.90
12384;DHT22;6256;63.808;20.336;2023-11-21T02:09:04;-7.20;99.90
12384;DHT22;6256;63.808;20.336;2023-11-21T02:14:00;-7.30;99.90
12384;DHT22;6256;63.808;20.336;2023-11-21T02:16:26;-7.30;99.90
12384;DHT22;6256;63.808;20.336;2023-11-21T02:18:53;-7.20;99.90
12384;DHT22;6256;63.808;20.336;2023-11-21T02:21:18;-7.40;99.90
12384;DHT22;6256;63.808;20.336;2023-11-21T02:23:47;-7.40;99.90
12384;DHT22;6256;63.808;20.336;2023-11-21T02:26:13;-7.40;99.90
12384;DHT22;6256;63.808;20.336;2023-11-21T02:28:39;-7.40;99.90
12384;DHT22;6256;63.808;20.336;2023-11-21T02:31:05;-7.40;99.90
12384;DHT22;6256;63.808;20.336;2023-11-21T02:33:33;-7.50;99.90
12384;DHT22;6256;63.808;20.336;2023-11-21T02:36:02;-7.50;99.90
12384;DHT22;6256;63.808;20.336;2023-11-21T02:38:28;-7.40;99.90
12384;DHT22;6256;63.808;20.336;2023-11-21T02:40:56;-7.50;99.90
12384;DHT22;6256;63.808;20.336;2023-11-21T02:43:22;-7.50;99.90
12384;DHT22;6256;63.808;20.336;2023-11-21T02:45:48;-7.60;99.90
12384;DHT22;6256;63.808;20.336;2023-11-21T02:48:14;-7.60;99.90
12384;DHT22;6256;63.808;20.336;2023-11-21T02:50:39;-7.50;99.90
12384;DHT22;6256;63.808;20.336;2023-11-21T02:53:05;-7.50;99.90
12384;DHT22;6256;63.808;20.336;2023-11-21T02:55:33;-7.50;99.90
12384;DHT22;6256;63.808;20.336;2023-11-21T02:58:03;-7.50;99.90
12384;DHT22;6256;63.808;20.336;2023-11-21T03:00:31;-7.50;99.90
12384;DHT22;6256;63.808;20.336;2023-11-21T03:02:57;-7.50;99.90
12384;DHT22;6256;63.808;20.336;2023-11-21T03:05:23;-7.50;99.90
12384;DHT22;6256;63.808;20.336;2023-11-21T03:07:49;-7.50;99.90
12384;DHT22;6256;63.808;20.336;2023-11-21T03:10:15;-7.60;99.90
12384;DHT22;6256;63.808;20.336;2023-11-21T03:12:40;-7.60;99.90
12384;DHT22;6256;63.808;20.336;2023-11-21T03:15:07;-7.70;99.90
12384;DHT22;6256;63.808;20.336;2023-11-21T03:17:33;-7.70;99.90
12384;DHT22;6256;63.808;20.336;2023-11-21T03:20:00;-7.70;99.90
12384;DHT22;6256;63.808;20.336;2023-11-21T03:22:25;-7.70;99.90
12384;DHT22;6256;63.808;20.336;2023-11-21T03:24:51;-7.70;99.90
12384;DHT22;6256;63.808;20.336;2023-11-21T03:27:18;-7.80;99.90
12384;DHT22;6256;63.808;20.336;2023-11-21T03:29:44;-7.70;99.90
12384;DHT22;6256;63.808;20.336;2023-11-21T03:34:53;-7.80;99.90
12384;DHT22;6256;63.808;20.336;2023-11-21T03:37:19;-7.80;99.90
12384;DHT22;6256;63.808;20.336;2023-11-21T03:39:46;-7.80;99.90
12384;DHT22;6256;63.808;20.336;2023-11-21T03:42:12;-7.80;99.90
12384;DHT22;6256;63.808;20.336;2023-11-21T03:44:38;-8.00;99.90
12384;DHT22;6256;63.808;20.336;2023-11-21T03:47:04;-8.00;99.90
12384;DHT22;6256;63.808;20.336;2023-11-21T03:49:30;-8.10;99.90
12384;DHT22;6256;63.808;20.336;2023-11-21T03:51:56;-8.00;99.90
12384;DHT22;6256;63.808;20.336;2023-11-21T03:54:22;-8.00;99.90
12384;DHT22;6256;63.808;20.336;2023-11-21T03:56:47;-7.90;99.90
12384;DHT22;6256;63.808;20.336;2023-11-21T03:59:13;-7.90;99.90
12384;DHT22;6256;63.808;20.336;2023-11-21T04:01:39;-7.90;99.90
12384;DHT22;6256;63.808;20.336;2023-11-21T04:04:04;-8.00;99.90
12384;DHT22;6256;63.808;20.336;2023-11-21T04:06:30;-7.90;99.90
12384;DHT22;6256;63.808;20.336;2023-11-21T04:08:58;-7.90;99.90
12384;DHT22;6256;63.808;20.336;2023-11-21T04:11:24;-7.90;99.90
12384;DHT22;6256;63.808;20.336;2023-11-21T04:13:49;-7.90;99.90
12384;DHT22;6256;63.808;20.336;2023-11-21T04:16:15;-7.90;99.90
12384;DHT22;6256;63.808;20.336;2023-11-21T04:18:41;-7.80;99.90
12384;DHT22;6256;63.808;20.336;2023-11-21T04:21:07;-7.80;99.90
12384;DHT22;6256;63.808;20.336;2023-11-21T04:23:34;-7.80;99.90
12384;DHT22;6256;63.808;20.336;2023-11-21T04:26:00;-7.90;99.90
12384;DHT22;6256;63.808;20.336;2023-11-21T04:28:27;-7.90;99.90
12384;DHT22;6256;63.808;20.336;2023-11-21T04:30:53;-8.10;99.90
12384;DHT22;6256;63.808;20.336;2023-11-21T04:33:19;-8.20;99.90
12384;DHT22;6256;63.808;20.336;2023-11-21T04:35:45;-8.30;99.90
12384;DHT22;6256;63.808;20.336;2023-11-21T04:38:11;-8.20;99.90
12384;DHT22;6256;63.808;20.336;2023-11-21T04:40:37;-8.20;99.90
12384;DHT22;6256;63.808;20.336;2023-11-21T04:43:02;-8.30;99.90
12384;DHT22;6256;63.808;20.336;2023-11-21T04:45:29;-8.30;99.90
12384;DHT22;6256;63.808;20.336;2023-11-21T04:47:55;-8.30;99.90
12384;DHT22;6256;63.808;20.336;2023-11-21T04:50:21;-8.40;99.90
12384;DHT22;6256;63.808;20.336;2023-11-21T04:52:47;-8.40;99.90
12384;DHT22;6256;63.808;20.336;2023-11-21T04:55:13;-8.40;99.90
12384;DHT22;6256;63.808;20.336;2023-11-21T04:57:39;-8.50;99.90
12384;DHT22;6256;63.808;20.336;2023-11-21T05:00:09;-8.60;99.90
12384;DHT22;6256;63.808;20.336;2023-11-21T05:02:35;-8.60;99.90
12384;DHT22;6256;63.808;20.336;2023-11-21T05:05:01;-8.50;99.90
12384;DHT22;6256;63.808;20.336;2023-11-21T05:07:27;-8.50;99.90
12384;DHT22;6256;63.808;20.336;2023-11-21T05:09:55;-8.50;99.90
12384;DHT22;6256;63.808;20.336;2023-11-21T05:12:24;-8.40;99.90
12384;DHT22;6256;63.808;20.336;2023-11-21T05:14:53;-8.50;99.90
12384;DHT22;6256;63.808;20.336;2023-11-21T05:17:18;-8.40;99.90
12384;DHT22;6256;63.808;20.336;2023-11-21T05:19:44;-8.40;99.90
12384;DHT22;6256;63.808;20.336;2023-11-21T05:22:10;-8.30;99.90
12384;DHT22;6256;63.808;20.336;2023-11-21T05:24:37;-8.50;99.90
12384;DHT22;6256;63.808;20.336;2023-11-21T05:27:04;-8.40;99.90
12384;DHT22;6256;63.808;20.336;2023-11-21T05:29:30;-8.50;99.90
12384;DHT22;6256;63.808;20.336;2023-11-21T05:34:22;-8.80;99.90
12384;DHT22;6256;63.808;20.336;2023-11-21T05:36:50;-8.80;99.90
12384;DHT22;6256;63.808;20.336;2023-11-21T05:39:15;-8.70;99.90
12384;DHT22;6256;63.808;20.336;2023-11-21T05:41:43;-8.70;99.90
12384;DHT22;6256;63.808;20.336;2023-11-21T05:44:08;-8.70;99.90
12384;DHT22;6256;63.808;20.336;2023-11-21T05:46:34;-8.60;99.90
12384;DHT22;6256;63.808;20.336;2023-11-21T05:49:00;-8.60;99.90
12384;DHT22;6256;63.808;20.336;2023-11-21T05:51:26;-8.60;99.90
12384;DHT22;6256;63.808;20.336;2023-11-21T05:53:51;-8.80;99.90
12384;DHT22;6256;63.808;20.336;2023-11-21T05:56:17;-8.80;99.90
12384;DHT22;6256;63.808;20.336;2023-11-21T05:58:43;-8.70;99.90
12384;DHT22;6256;63.808;20.336;2023-11-21T06:01:09;-8.70;99.90
12384;DHT22;6256;63.808;20.336;2023-11-21T06:03:38;-8.80;99.90
12384;DHT22;6256;63.808;20.336;2023-11-21T06:06:04;-8.80;99.90
12384;DHT22;6256;63.808;20.336;2023-11-21T06:08:30;-8.70;99.90
12384;DHT22;6256;63.808;20.336;2023-11-21T06:10:55;-8.70;99.90
12384;DHT22;6256;63.808;20.336;2023-11-21T06:13:21;-8.70;99.90
12384;DHT22;6256;63.808;20.336;2023-11-21T06:15:50;-8.60;99.90
12384;DHT22;6256;63.808;20.336;2023-11-21T06:18:17;-8.60;99.90
12384;DHT22;6256;63.808;20.336;2023-11-21T06:20:45;-8.60;99.90
12384;DHT22;6256;63.808;20.336;2023-11-21T06:23:11;-8.60;99.90
12384;DHT22;6256;63.808;20.336;2023-11-21T06:25:37;-8.60;99.90
12384;DHT22;6256;63.808;20.336;2023-11-21T06:28:03;-8.60;99.90
12384;DHT22;6256;63.808;20.336;2023-11-21T06:30:29;-8.70;99.90
12384;DHT22;6256;63.808;20.336;2023-11-21T06:32:55;-8.70;99.90
12384;DHT22;6256;63.808;20.336;2023-11-21T06:35:22;-8.80;99.90
12384;DHT22;6256;63.808;20.336;2023-11-21T06:37:47;-8.70;99.90
12384;DHT22;6256;63.808;20.336;2023-11-21T06:40:14;-8.70;99.90
12384;DHT22;6256;63.808;20.336;2023-11-21T06:42:44;-8.60;99.90
12384;DHT22;6256;63.808;20.336;2023-11-21T06:45:10;-8.60;99.90
12384;DHT22;6256;63.808;20.336;2023-11-21T06:47:36;-8.60;99.90
12384;DHT22;6256;63.808;20.336;2023-11-21T06:50:03;-8.70;99.90
12384;DHT22;6256;63.808;20.336;2023-11-21T06:52:29;-8.70;99.90
12384;DHT22;6256;63.808;20.336;2023-11-21T06:54:55;-8.60;99.90
12384;DHT22;6256;63.808;20.336;2023-11-21T06:57:23;-8.60;99.90
12384;DHT22;6256;63.808;20.336;2023-11-21T06:59:49;-8.50;99.90
12384;DHT22;6256;63.808;20.336;2023-11-21T07:02:16;-8.50;99.90
12384;DHT22;6256;63.808;20.336;2023-11-21T07:04:45;-8.50;99.90
12384;DHT22;6256;63.808;20.336;2023-11-21T07:07:11;-8.50;99.90
12384;DHT22;6256;63.808;20.336;2023-11-21T07:09:37;-8.50;99.90
12384;DHT22;6256;63.808;20.336;2023-11-21T07:12:04;-8.50;99.90
12384;DHT22;6256;63.808;20.336;2023-11-21T07:14:35;-8.50;99.90
12384;DHT22;6256;63.808;20.336;2023-11-21T07:17:02;-8.50;99.90
12384;DHT22;6256;63.808;20.336;2023-11-21T07:19:28;-8.50;99.90
12384;DHT22;6256;63.808;20.336;2023-11-21T07:21:54;-8.50;99.90
12384;DHT22;6256;63.808;20.336;2023-11-21T07:24:21;-8.40;99.90
12384;DHT22;6256;63.808;20.336;2023-11-21T07:26:48;-8.40;99.90
12384;DHT22;6256;63.808;20.336;2023-11-21T07:29:13;-8.40;99.90
12384;DHT22;6256;63.808;20.336;2023-11-21T07:31:39;-8.40;99.90
12384;DHT22;6256;63.808;20.336;2023-11-21T07:34:06;-8.50;99.90
12384;DHT22;6256;63.808;20.336;2023-11-21T07:36:33;-8.60;99.90
12384;DHT22;6256;63.808;20.336;2023-11-21T07:38:59;-8.80;99.90
12384;DHT22;6256;63.808;20.336;2023-11-21T07:41:25;-8.90;99.90
12384;DHT22;6256;63.808;20.336;2023-11-21T07:43:51;-9.00;99.90
12384;DHT22;6256;63.808;20.336;2023-11-21T07:46:17;-9.10;99.90
12384;DHT22;6256;63.808;20.336;2023-11-21T07:48:43;-9.20;99.90
12384;DHT22;6256;63.808;20.336;2023-11-21T07:51:10;-9.30;99.90
12384;DHT22;6256;63.808;20.336;2023-11-21T07:56:09;-9.50;99.90
12384;DHT22;6256;63.808;20.336;2023-11-21T07:58:35;-9.60;99.90
12384;DHT22;6256;63.808;20.336;2023-11-21T08:01:02;-9.60;99.90
12384;DHT22;6256;63.808;20.336;2023-11-21T08:03:29;-9.70;99.90
12384;DHT22;6256;63.808;20.336;2023-11-21T08:06:00;-9.70;99.90
12384;DHT22;6256;63.808;20.336;2023-11-21T08:08:29;-9.80;99.90
12384;DHT22;6256;63.808;20.336;2023-11-21T08:10:54;-9.80;99.90
12384;DHT22;6256;63.808;20.336;2023-11-21T08:13:27;-9.80;99.90
12384;DHT22;6256;63.808;20.336;2023-11-21T08:15:57;-9.80;99.90
12384;DHT22;6256;63.808;20.336;2023-11-21T08:18:27;-9.90;99.90
12384;DHT22;6256;63.808;20.336;2023-11-21T08:20:53;-9.90;99.90
12384;DHT22;6256;63.808;20.336;2023-11-21T08:23:20;-9.80;99.90
12384;DHT22;6256;63.808;20.336;2023-11-21T08:25:46;-9.90;99.90
12384;DHT22;6256;63.808;20.336;2023-11-21T08:28:13;-9.90;99.90
12384;DHT22;6256;63.808;20.336;2023-11-21T08:30:42;-9.90;99.90
12384;DHT22;6256;63.808;20.336;2023-11-21T08:33:08;-9.90;99.90
12384;DHT22;6256;63.808;20.336;2023-11-21T08:35:39;-9.90;99.90
12384;DHT22;6256;63.808;20.336;2023-11-21T08:38:05;-10.00;99.90
12384;DHT22;6256;63.808;20.336;2023-11-21T08:40:31;-10.00;99.90
12384;DHT22;6256;63.808;20.336;2023-11-21T08:42:57;-10.00;99.90
12384;DHT22;6256;63.808;20.336;2023-11-21T08:45:24;-10.10;99.90
12384;DHT22;6256;63.808;20.336;2023-11-21T08:47:51;-10.00;99.90
12384;DHT22;6256;63.808;20.336;2023-11-21T08:50:17;-10.10;99.90
12384;DHT22;6256;63.808;20.336;2023-11-21T08:52:44;-10.10;99.90
12384;DHT22;6256;63.808;20.336;2023-11-21T08:55:11;-10.00;99.90
12384;DHT22;6256;63.808;20.336;2023-11-21T08:57:41;-10.10;99.90
12384;DHT22;6256;63.808;20.336;2023-11-21T09:00:09;-10.10;99.90
12384;DHT22;6256;63.808;20.336;2023-11-21T09:02:37;-10.10;99.90
12384;DHT22;6256;63.808;20.336;2023-11-21T09:05:07;-10.10;99.90
12384;DHT22;6256;63.808;20.336;2023-11-21T09:07:34;-10.00;99.90
12384;DHT22;6256;63.808;20.336;2023-11-21T09:10:00;-10.10;99.90
12384;DHT22;6256;63.808;20.336;2023-11-21T09:12:25;-10.10;99.90
12384;DHT22;6256;63.808;20.336;2023-11-21T09:14:51;-10.10;99.90
12384;DHT22;6256;63.808;20.336;2023-11-21T09:17:17;-10.10;99.90
12384;DHT22;6256;63.808;20.336;2023-11-21T09:19:43;-10.10;99.90
12384;DHT22;6256;63.808;20.336;2023-11-21T09:22:16;-10.10;99.90
12384;DHT22;6256;63.808;20.336;2023-11-21T09:24:42;-10.10;99.90
12384;DHT22;6256;63.808;20.336;2023-11-21T09:27:08;-10.10;99.90
12384;DHT22;6256;63.808;20.336;2023-11-21T09:29:38;-10.10;99.90
12384;DHT22;6256;63.808;20.336;2023-11-21T09:32:05;-10.10;99.90
12384;DHT22;6256;63.808;20.336;2023-11-21T09:34:33;-10.00;99.90
12384;DHT22;6256;63.808;20.336;2023-11-21T09:36:59;-10.00;99.90
12384;DHT22;6256;63.808;20.336;2023-11-21T09:39:24;-10.00;99.90
12384;DHT22;6256;63.808;20.336;2023-11-21T09:41:52;-9.90;99.90
12384;DHT22;6256;63.808;20.336;2023-11-21T09:44:32;-9.80;99.90
12384;DHT22;6256;63.808;20.336;2023-11-21T09:47:00;-9.80;99.90
12384;DHT22;6256;63.808;20.336;2023-11-21T09:49:28;-9.70;99.90
12384;DHT22;6256;63.808;20.336;2023-11-21T09:51:57;-9.60;99.90
12384;DHT22;6256;63.808;20.336;2023-11-21T09:54:24;-9.50;99.90
12384;DHT22;6256;63.808;20.336;2023-11-21T09:56:50;-9.40;99.90
12384;DHT22;6256;63.808;20.336;2023-11-21T09:59:16;-9.30;99.90
12384;DHT22;6256;63.808;20.336;2023-11-21T10:01:42;-9.20;99.90
12384;DHT22;6256;63.808;20.336;2023-11-21T10:04:11;-9.30;99.90
12384;DHT22;6256;63.808;20.336;2023-11-21T10:06:40;-9.30;99.90
12384;DHT22;6256;63.808;20.336;2023-11-21T10:09:10;-9.40;99.90
12384;DHT22;6256;63.808;20.336;2023-11-21T10:11:40;-9.40;99.90
12384;DHT22;6256;63.808;20.336;2023-11-21T10:14:08;-9.50;99.90
12384;DHT22;6256;63.808;20.336;2023-11-21T10:16:36;-9.50;99.90
12384;DHT22;6256;63.808;20.336;2023-11-21T10:19:04;-9.50;99.90
12384;DHT22;6256;63.808;20.336;2023-11-21T10:21:34;-9.50;99.90
12384;DHT22;6256;63.808;20.336;2023-11-21T10:24:00;-9.50;99.90
12384;DHT22;6256;63.808;20.336;2023-11-21T10:26:28;-9.50;99.90
12384;DHT22;6256;63.808;20.336;2023-11-21T10:29:01;-9.50;99.90
12384;DHT22;6256;63.808;20.336;2023-11-21T10:31:32;-9.50;99.90
12384;DHT22;6256;63.808;20.336;2023-11-21T10:34:20;-9.50;99.90
12384;DHT22;6256;63.808;20.336;2023-11-21T10:36:46;-9.50;99.90
12384;DHT22;6256;63.808;20.336;2023-11-21T10:39:21;-9.50;99.90
12384;DHT22;6256;63.808;20.336;2023-11-21T10:41:49;-9.40;99.90
12384;DHT22;6256;63.808;20.336;2023-11-21T10:46:48;-9.00;99.90
12384;DHT22;6256;63.808;20.336;2023-11-21T10:49:17;-8.80;99.90
12384;DHT22;6256;63.808;20.336;2023-11-21T10:51:44;-8.50;99.90
12384;DHT22;6256;63.808;20.336;2023-11-21T10:54:10;-8.20;99.90
12384;DHT22;6256;63.808;20.336;2023-11-21T10:56:38;-7.90;99.90
12384;DHT22;6256;63.808;20.336;2023-11-21T10:59:09;-7.60;99.90
12384;DHT22;6256;63.808;20.336;2023-11-21T11:01:36;-7.70;99.90
12384;DHT22;6256;63.808;20.336;2023-11-21T11:04:04;-7.90;99.90
12384;DHT22;6256;63.808;20.336;2023-11-21T11:06:32;-8.00;99.90
12384;DHT22;6256;63.808;20.336;2023-11-21T11:08:59;-8.20;99.90
12384;DHT22;6256;63.808;20.336;2023-11-21T11:11:29;-8.30;99.90
12384;DHT22;6256;63.808;20.336;2023-11-21T11:13:56;-8.30;99.90
12384;DHT22;6256;63.808;20.336;2023-11-21T11:16:22;-8.40;99.90
12384;DHT22;6256;63.808;20.336;2023-11-21T11:18:50;-8.50;99.90
12384;DHT22;6256;63.808;20.336;2023-11-21T11:30:19;-8.90;99.90
12384;DHT22;6256;63.808;20.336;2023-11-21T11:33:00;-9.00;99.90
12384;DHT22;6256;63.808;20.336;2023-11-21T11:39:00;-9.20;99.90
12384;DHT22;6256;63.808;20.336;2023-11-21T11:41:30;-9.30;99.90
12384;DHT22;6256;63.808;20.336;2023-11-21T11:43:58;-9.30;99.90
12384;DHT22;6256;63.808;20.336;2023-11-21T11:46:43;-9.30;99.90
12384;DHT22;6256;63.808;20.336;2023-11-21T11:49:23;-9.30;99.90
12384;DHT22;6256;63.808;20.336;2023-11-21T11:54:55;-9.40;99.90
12384;DHT22;6256;63.808;20.336;2023-11-21T11:57:24;-9.40;99.90
12384;DHT22;6256;63.808;20.336;2023-11-21T12:00:20;-9.50;99.90
12384;DHT22;6256;63.808;20.336;2023-11-21T12:02:52;-9.50;99.90
12384;DHT22;6256;63.808;20.336;2023-11-21T12:05:21;-9.50;99.90
12384;DHT22;6256;63.808;20.336;2023-11-21T12:22:44;-9.60;99.90
12384;DHT22;6256;63.808;20.336;2023-11-21T12:25:10;-9.70;99.90
12384;DHT22;6256;63.808;20.336;2023-11-21T12:27:42;-9.70;99.90
12384;DHT22;6256;63.808;20.336;2023-11-21T12:30:08;-9.70;99.90
12384;DHT22;6256;63.808;20.336;2023-11-21T12:32:39;-9.80;99.90
12384;DHT22;6256;63.808;20.336;2023-11-21T12:35:08;-9.80;99.90
12384;DHT22;6256;63.808;20.336;2023-11-21T12:37:36;-9.80;99.90
12384;DHT22;6256;63.808;20.336;2023-11-21T12:40:02;-9.80;99.90
12384;DHT22;6256;63.808;20.336;2023-11-21T12:42:28;-9.90;99.90
12384;DHT22;6256;63.808;20.336;2023-11-21T12:45:09;-9.90;99.90
12384;DHT22;6256;63.808;20.336;2023-11-21T12:50:06;-10.00;99.90
12384;DHT22;6256;63.808;20.336;2023-11-21T12:52:32;-10.00;99.90
12384;DHT22;6256;63.808;20.336;2023-11-21T12:54:58;-10.10;99.90
12384;DHT22;6256;63.808;20.336;2023-11-21T12:57:28;-10.10;99.90
12384;DHT22;6256;63.808;20.336;2023-11-21T12:59:57;-10.10;99.90
12384;DHT22;6256;63.808;20.336;2023-11-21T13:02:26;-10.20;99.90
12384;DHT22;6256;63.808;20.336;2023-11-21T13:04:53;-10.30;99.90
12384;DHT22;6256;63.808;20.336;2023-11-21T13:07:22;-10.30;99.90
12384;DHT22;6256;63.808;20.336;2023-11-21T13:09:52;-10.40;99.90
12384;DHT22;6256;63.808;20.336;2023-11-21T13:12:23;-10.40;99.90
12384;DHT22;6256;63.808;20.336;2023-11-21T13:14:50;-10.40;99.90
12384;DHT22;6256;63.808;20.336;2023-11-21T13:17:16;-10.50;99.90
12384;DHT22;6256;63.808;20.336;2023-11-21T13:19:41;-10.50;99.90
12384;DHT22;6256;63.808;20.336;2023-11-21T13:22:07;-10.60;99.90
12384;DHT22;6256;63.808;20.336;2023-11-21T13:24:36;-10.70;99.90
12384;DHT22;6256;63.808;20.336;2023-11-21T13:27:02;-10.70;99.90
12384;DHT22;6256;63.808;20.336;2023-11-21T13:29:28;-10.80;99.90
12384;DHT22;6256;63.808;20.336;2023-11-21T13:31:55;-10.90;99.90
12384;DHT22;6256;63.808;20.336;2023-11-21T13:34:21;-10.90;99.90
12384;DHT22;6256;63.808;20.336;2023-11-21T13:36:47;-11.00;99.90
12384;DHT22;6256;63.808;20.336;2023-11-21T13:39:13;-11.00;99.90
12384;DHT22;6256;63.808;20.336;2023-11-21T13:41:42;-11.10;99.90
12384;DHT22;6256;63.808;20.336;2023-11-21T13:44:07;-11.10;99.90
12384;DHT22;6256;63.808;20.336;2023-11-21T13:46:51;-11.20;99.90
12384;DHT22;6256;63.808;20.336;2023-11-21T13:49:17;-11.20;99.90
12384;DHT22;6256;63.808;20.336;2023-11-21T13:51:46;-11.30;99.90
12384;DHT22;6256;63.808;20.336;2023-11-21T13:54:16;-11.30;99.90
12384;DHT22;6256;63.808;20.336;2023-11-21T13:56:42;-11.40;99.90
12384;DHT22;6256;63.808;20.336;2023-11-21T13:59:10;-11.40;99.90
12384;DHT22;6256;63.808;20.336;2023-11-21T14:04:22;-11.50;99.90
12384;DHT22;6256;63.808;20.336;2023-11-21T14:06:56;-11.50;99.90
12384;DHT22;6256;63.808;20.336;2023-11-21T14:09:24;-11.50;99.90
12384;DHT22;6256;63.808;20.336;2023-11-21T14:11:55;-11.50;99.90
12384;DHT22;6256;63.808;20.336;2023-11-21T14:14:24;-11.40;99.90
12384;DHT22;6256;63.808;20.336;2023-11-21T14:16:56;-11.50;99.90
12384;DHT22;6256;63.808;20.336;2023-11-21T14:19:23;-11.60;99.90
12384;DHT22;6256;63.808;20.336;2023-11-21T14:21:52;-11.60;99.90
12384;DHT22;6256;63.808;20.336;2023-11-21T14:24:18;-11.60;99.90
12384;DHT22;6256;63.808;20.336;2023-11-21T14:26:45;-11.70;99.90
12384;DHT22;6256;63.808;20.336;2023-11-21T14:29:12;-11.80;99.90
12384;DHT22;6256;63.808;20.336;2023-11-21T14:31:41;-11.80;99.90
12384;DHT22;6256;63.808;20.336;2023-11-21T14:34:07;-11.90;99.90
12384;DHT22;6256;63.808;20.336;2023-11-21T14:36:34;-12.00;99.90
12384;DHT22;6256;63.808;20.336;2023-11-21T14:39:00;-12.00;99.90
12384;DHT22;6256;63.808;20.336;2023-11-21T14:41:26;-12.00;99.90
12384;DHT22;6256;63.808;20.336;2023-11-21T14:43:54;-12.10;99.90
12384;DHT22;6256;63.808;20.336;2023-11-21T14:46:21;-12.10;99.90
12384;DHT22;6256;63.808;20.336;2023-11-21T14:48:46;-12.20;99.90
12384;DHT22;6256;63.808;20.336;2023-11-21T14:51:35;-12.20;99.90
12384;DHT22;6256;63.808;20.336;2023-11-21T14:54:20;-12.20;99.90
12384;DHT22;6256;63.808;20.336;2023-11-21T14:57:02;-12.30;99.90
12384;DHT22;6256;63.808;20.336;2023-11-21T16:02:22;-14.50;99.90
12384;DHT22;6256;63.808;20.336;2023-11-21T16:04:48;-14.30;99.90
12384;DHT22;6256;63.808;20.336;2023-11-21T16:07:13;-14.10;99.90
12384;DHT22;6256;63.808;20.336;2023-11-21T16:09:39;-14.00;99.90
12384;DHT22;6256;63.808;20.336;2023-11-21T16:12:08;-13.90;99.90
12384;DHT22;6256;63.808;20.336;2023-11-21T16:14:35;-13.90;99.90
12384;DHT22;6256;63.808;20.336;2023-11-21T16:17:04;-13.80;99.90
12384;DHT22;6256;63.808;20.336;2023-11-21T16:19:32;-13.80;99.90
12384;DHT22;6256;63.808;20.336;2023-11-21T16:21:59;-13.80;99.90
12384;DHT22;6256;63.808;20.336;2023-11-21T16:24:25;-13.70;99.90
12384;DHT22;6256;63.808;20.336;2023-11-21T16:26:53;-13.70;99.90
12384;DHT22;6256;63.808;20.336;2023-11-21T16:29:19;-13.70;99.90
12384;DHT22;6256;63.808;20.336;2023-11-21T16:31:45;-13.70;99.90
12384;DHT22;6256;63.808;20.336;2023-11-21T16:34:19;-13.70;99.90
12384;DHT22;6256;63.808;20.336;2023-11-21T16:36:46;-13.60;99.90
12384;DHT22;6256;63.808;20.336;2023-11-21T16:39:12;-13.60;99.90
12384;DHT22;6256;63.808;20.336;2023-11-21T16:41:38;-13.60;99.90
12384;DHT22;6256;63.808;20.336;2023-11-21T16:44:05;-13.60;99.90
12384;DHT22;6256;63.808;20.336;2023-11-21T16:46:30;-13.70;99.90
12384;DHT22;6256;63.808;20.336;2023-11-21T16:48:56;-13.70;99.90
12384;DHT22;6256;63.808;20.336;2023-11-21T16:51:22;-13.70;99.90
12384;DHT22;6256;63.808;20.336;2023-11-21T16:53:47;-13.70;99.90
12384;DHT22;6256;63.808;20.336;2023-11-21T16:56:13;-13.70;99.90
12384;DHT22;6256;63.808;20.336;2023-11-21T16:58:39;-13.80;99.90
12384;DHT22;6256;63.808;20.336;2023-11-21T17:01:05;-13.80;99.90
12384;DHT22;6256;63.808;20.336;2023-11-21T17:03:35;-13.80;99.90
12384;DHT22;6256;63.808;20.336;2023-11-21T17:06:01;-13.80;99.90
12384;DHT22;6256;63.808;20.336;2023-11-21T17:08:31;-13.80;99.90
12384;DHT22;6256;63.808;20.336;2023-11-21T17:10:57;-13.80;99.90
12384;DHT22;6256;63.808;20.336;2023-11-21T17:13:22;-13.80;99.90
12384;DHT22;6256;63.808;20.336;2023-11-21T17:15:48;-13.80;99.90
12384;DHT22;6256;63.808;20.336;2023-11-21T17:18:14;-13.80;99.90
12384;DHT22;6256;63.808;20.336;2023-11-21T17:20:40;-13.80;99.90